sensor_id;sensor_type;location;lat;lon;timestamp;P1;durP1;ratioP1;P2;durP2;ratioP2
75922;SDS011;64602;47.542;19.090;2023-06-05T04:37:53;6.53;;;3.00;;
75922;SDS011;64602;47.542;19.090;2023-06-05T04:42:55;6.47;;;2.95;;
75922;SDS011;64602;47.542;19.090;2023-06-05T04:47:58;5.00;;;2.53;;
75922;SDS011;64602;47.542;19.090;2023-06-05T04:53:00;6.78;;;2.72;;
75922;SDS011;64602;47.542;19.090;2023-06-05T04:58:02;5.10;;;2.78;;
75922;SDS011;64602;47.542;19.090;2023-06-05T05:03:06;4.07;;;2.47;;
75922;SDS011;64602;47.542;19.090;2023-06-05T05:08:08;8.02;;;3.00;;
75922;SDS011;64602;47.542;19.090;2023-06-05T05:13:10;3.95;;;2.33;;
75922;SDS011;64602;47.542;19.090;2023-06-05T05:18:12;6.60;;;2.47;;
75922;SDS011;64602;47.542;19.090;2023-06-05T05:23:14;6.40;;;3.13;;
75922;SDS011;64602;47.542;19.090;2023-06-05T05:28:19;7.55;;;2.97;;
75922;SDS011;64602;47.542;19.090;2023-06-05T05:33:21;6.97;;;2.85;;
75922;SDS011;64602;47.542;19.090;2023-06-05T05:38:24;6.17;;;3.20;;
75922;SDS011;64602;47.542;19.090;2023-06-05T05:43:26;6.90;;;3.15;;
75922;SDS011;64602;47.542;19.090;2023-06-05T05:48:28;7.00;;;3.20;;
75922;SDS011;64602;47.542;19.090;2023-06-05T05:53:31;7.77;;;3.17;;
75922;SDS011;64602;47.542;19.090;2023-06-05T05:58:33;6.47;;;3.20;;
75922;SDS011;64602;47.542;19.090;2023-06-05T06:03:35;5.43;;;2.55;;
75922;SDS011;64602;47.542;19.090;2023-06-05T06:08:39;6.97;;;2.50;;
75922;SDS011;64602;47.542;19.090;2023-06-05T06:13:41;7.20;;;3.10;;
75922;SDS011;64602;47.542;19.090;2023-06-05T06:18:43;7.00;;;3.35;;
75922;SDS011;64602;47.542;19.090;2023-06-05T06:23:46;7.32;;;2.97;;
75922;SDS011;64602;47.542;19.090;2023-06-05T06:28:49;6.27;;;2.80;;
75922;SDS011;64602;47.542;19.090;2023-06-05T06:33:51;8.15;;;3.20;;
75922;SDS011;64602;47.542;19.090;2023-06-05T06:38:53;6.45;;;3.10;;
75922;SDS011;64602;47.542;19.090;2023-06-05T06:43:58;8.40;;;2.90;;
75922;SDS011;64602;47.542;19.090;2023-06-05T06:49:00;10.32;;;3.00;;
75922;SDS011;64602;47.542;19.090;2023-06-05T06:54:02;8.98;;;2.90;;
75922;SDS011;64602;47.542;19.090;2023-06-05T06:59:13;8.20;;;3.20;;
75922;SDS011;64602;47.542;19.090;2023-06-05T07:04:16;9.50;;;3.30;;
75922;SDS011;64602;47.542;19.090;2023-06-05T07:09:21;9.77;;;3.00;;
75922;SDS011;64602;47.542;19.090;2023-06-05T07:14:23;4.40;;;2.17;;
75922;SDS011;64602;47.542;19.090;2023-06-05T07:19:26;3.93;;;2.23;;
75922;SDS011;64602;47.542;19.090;2023-06-05T07:24:29;6.47;;;2.60;;
75922;SDS011;64602;47.542;19.090;2023-06-05T07:29:32;6.78;;;2.67;;
75922;SDS011;64602;47.542;19.090;2023-06-05T07:34:34;10.83;;;3.23;;
75922;SDS011;64602;47.542;19.090;2023-06-05T07:39:37;6.85;;;3.05;;
75922;SDS011;64602;47.542;19.090;2023-06-05T07:44:39;8.82;;;2.50;;
75922;SDS011;64602;47.542;19.090;2023-06-05T07:49:41;8.30;;;2.67;;
75922;SDS011;64602;47.542;19.090;2023-06-05T07:54:43;7.73;;;2.70;;
75922;SDS011;64602;47.542;19.090;2023-06-05T07:59:45;7.93;;;2.62;;
75922;SDS011;64602;47.542;19.090;2023-06-05T08:04:50;8.98;;;2.42;;
75922;SDS011;64602;47.542;19.090;2023-06-05T08:09:53;6.13;;;2.90;;
75922;SDS011;64602;47.542;19.090;2023-06-05T08:14:55;6.80;;;2.72;;
75922;SDS011;64602;47.542;19.090;2023-06-05T08:19:57;7.80;;;2.47;;
75922;SDS011;64602;47.542;19.090;2023-06-05T08:25:00;7.30;;;2.57;;
75922;SDS011;64602;47.542;19.090;2023-06-05T08:30:02;6.10;;;2.33;;
75922;SDS011;64602;47.542;19.090;2023-06-05T08:35:05;7.45;;;2.40;;
75922;SDS011;64602;47.542;19.090;2023-06-05T08:40:08;6.60;;;2.80;;
75922;SDS011;64602;47.542;19.090;2023-06-05T08:45:12;7.47;;;3.00;;
75922;SDS011;64602;47.542;19.090;2023-06-05T08:50:14;9.23;;;2.62;;
75922;SDS011;64602;47.542;19.090;2023-06-05T08:55:19;12.27;;;2.53;;
75922;SDS011;64602;47.542;19.090;2023-06-05T09:00:24;12.10;;;3.50;;
75922;SDS011;64602;47.542;19.090;2023-06-05T09:05:27;8.10;;;3.10;;
75922;SDS011;64602;47.542;19.090;2023-06-05T09:10:29;10.95;;;3.00;;
75922;SDS011;64602;47.542;19.090;2023-06-05T09:15:32;8.47;;;3.53;;
75922;SDS011;64602;47.542;19.090;2023-06-05T09:20:43;6.25;;;2.55;;
75922;SDS011;64602;47.542;19.090;2023-06-05T09:25:48;6.95;;;3.10;;
75922;SDS011;64602;47.542;19.090;2023-06-05T09:30:57;10.70;;;2.83;;
75922;SDS011;64602;47.542;19.090;2023-06-05T09:36:04;7.97;;;2.90;;
75922;SDS011;64602;47.542;19.090;2023-06-05T09:41:13;6.87;;;2.83;;
75922;SDS011;64602;47.542;19.090;2023-06-05T09:46:22;8.85;;;2.60;;
75922;SDS011;64602;47.542;19.090;2023-06-05T09:51:24;5.60;;;2.43;;
75922;SDS011;64602;47.542;19.090;2023-06-05T09:56:26;6.25;;;3.15;;
75922;SDS011;64602;47.542;19.090;2023-06-05T10:01:30;5.25;;;2.67;;
75922;SDS011;64602;47.542;19.090;2023-06-05T10:06:36;6.23;;;3.00;;
75922;SDS011;64602;47.542;19.090;2023-06-05T10:11:40;8.82;;;2.87;;
75922;SDS011;64602;47.542;19.090;2023-06-05T10:16:43;11.73;;;3.87;;
75922;SDS011;64602;47.542;19.090;2023-06-05T10:21:50;11.53;;;2.80;;
75922;SDS011;64602;47.542;19.090;2023-06-05T10:32:33;7.10;;;2.47;;
75922;SDS011;64602;47.542;19.090;2023-06-05T10:49:04;8.02;;;1.70;;
75922;SDS011;64602;47.542;19.090;2023-06-05T10:54:15;5.72;;;2.17;;
75922;SDS011;64602;47.542;19.090;2023-06-05T10:59:37;6.67;;;2.37;;
75922;SDS011;64602;47.542;19.090;2023-06-05T11:15:04;12.30;;;2.50;;
75922;SDS011;64602;47.542;19.090;2023-06-05T11:20:07;13.80;;;4.37;;
75922;SDS011;64602;47.542;19.090;2023-06-05T11:25:25;4.43;;;1.95;;
75922;SDS011;64602;47.542;19.090;2023-06-05T11:30:38;4.60;;;1.90;;
75922;SDS011;64602;47.542;19.090;2023-06-05T11:35:45;11.77;;;3.10;;
75922;SDS011;64602;47.542;19.090;2023-06-05T11:40:50;7.97;;;2.28;;
75922;SDS011;64602;47.542;19.090;2023-06-05T11:45:53;4.43;;;1.90;;
75922;SDS011;64602;47.542;19.090;2023-06-05T11:51:02;4.77;;;2.03;;
75922;SDS011;64602;47.542;19.090;2023-06-05T11:56:11;7.72;;;2.50;;
75922;SDS011;64602;47.542;19.090;2023-06-05T12:01:17;5.37;;;2.30;;
75922;SDS011;64602;47.542;19.090;2023-06-05T12:06:24;6.50;;;1.97;;
75922;SDS011;64602;47.542;19.090;2023-06-05T12:11:32;6.47;;;2.27;;
75922;SDS011;64602;47.542;19.090;2023-06-05T12:16:44;7.45;;;1.83;;
75922;SDS011;64602;47.542;19.090;2023-06-05T12:21:47;8.05;;;2.40;;
75922;SDS011;64602;47.542;19.090;2023-06-05T12:26:56;4.97;;;2.10;;
75922;SDS011;64602;47.542;19.090;2023-06-05T12:32:02;4.28;;;2.33;;
75922;SDS011;64602;47.542;19.090;2023-06-05T12:37:05;5.70;;;2.08;;
75922;SDS011;64602;47.542;19.090;2023-06-05T12:42:12;4.27;;;2.00;;
75922;SDS011;64602;47.542;19.090;2023-06-05T12:47:15;8.60;;;3.05;;
75922;SDS011;64602;47.542;19.090;2023-06-05T12:52:17;4.57;;;1.90;;
75922;SDS011;64602;47.542;19.090;2023-06-05T12:57:20;4.30;;;2.10;;
75922;SDS011;64602;47.542;19.090;2023-06-05T13:02:23;3.97;;;2.10;;
75922;SDS011;64602;47.542;19.090;2023-06-05T13:07:25;5.82;;;2.50;;
75922;SDS011;64602;47.542;19.090;2023-06-05T13:12:28;7.55;;;2.10;;
75922;SDS011;64602;47.542;19.090;2023-06-05T13:17:30;5.07;;;1.57;;
75922;SDS011;64602;47.542;19.090;2023-06-05T13:22:35;7.18;;;2.20;;
75922;SDS011;64602;47.542;19.090;2023-06-05T13:27:37;4.68;;;1.70;;
75922;SDS011;64602;47.542;19.090;2023-06-05T13:32:39;4.90;;;1.60;;
75922;SDS011;64602;47.542;19.090;2023-06-05T13:37:43;4.97;;;1.60;;
75922;SDS011;64602;47.542;19.090;2023-06-05T13:42:45;6.87;;;1.40;;
75922;SDS011;64602;47.542;19.090;2023-06-05T13:47:49;3.87;;;1.80;;
75922;SDS011;64602;47.542;19.090;2023-06-05T13:52:51;7.17;;;2.07;;
75922;SDS011;64602;47.542;19.090;2023-06-05T13:57:54;6.22;;;1.90;;
75922;SDS011;64602;47.542;19.090;2023-06-05T14:03:02;5.37;;;1.90;;
75922;SDS011;64602;47.542;19.090;2023-06-05T14:08:05;3.53;;;1.80;;
75922;SDS011;64602;47.542;19.090;2023-06-05T14:13:08;3.65;;;1.90;;
75922;SDS011;64602;47.542;19.090;2023-06-05T14:18:11;6.05;;;1.70;;
75922;SDS011;64602;47.542;19.090;2023-06-05T14:23:14;6.17;;;1.87;;
75922;SDS011;64602;47.542;19.090;2023-06-05T14:28:16;8.43;;;2.35;;
75922;SDS011;64602;47.542;19.090;2023-06-05T14:33:21;6.12;;;1.73;;
75922;SDS011;64602;47.542;19.090;2023-06-05T14:38:23;5.73;;;1.50;;
75922;SDS011;64602;47.542;19.090;2023-06-05T14:43:25;3.73;;;1.97;;
75922;SDS011;64602;47.542;19.090;2023-06-05T14:48:28;4.57;;;1.70;;
75922;SDS011;64602;47.542;19.090;2023-06-05T14:53:31;7.47;;;2.03;;
75922;SDS011;64602;47.542;19.090;2023-06-05T14:58:34;6.97;;;1.80;;
75922;SDS011;64602;47.542;19.090;2023-06-05T15:03:36;3.90;;;1.85;;
75922;SDS011;64602;47.542;19.090;2023-06-05T15:08:38;6.95;;;2.12;;
75922;SDS011;64602;47.542;19.090;2023-06-05T15:13:40;5.53;;;2.10;;
75922;SDS011;64602;47.542;19.090;2023-06-05T15:18:45;5.57;;;1.70;;
75922;SDS011;64602;47.542;19.090;2023-06-05T15:23:48;5.25;;;1.60;;
75922;SDS011;64602;47.542;19.090;2023-06-05T15:28:50;4.03;;;1.87;;
75922;SDS011;64602;47.542;19.090;2023-06-05T15:33:53;3.37;;;1.83;;
75922;SDS011;64602;47.542;19.090;2023-06-05T15:38:55;4.45;;;1.52;;
75922;SDS011;64602;47.542;19.090;2023-06-05T15:43:57;4.47;;;1.80;;
75922;SDS011;64602;47.542;19.090;2023-06-05T15:48:59;3.93;;;1.80;;
75922;SDS011;64602;47.542;19.090;2023-06-05T15:54:01;6.93;;;2.28;;
75922;SDS011;64602;47.542;19.090;2023-06-05T15:59:23;3.92;;;1.95;;
75922;SDS011;64602;47.542;19.090;2023-06-05T16:04:25;5.13;;;1.80;;
75922;SDS011;64602;47.542;19.090;2023-06-05T16:09:28;4.18;;;1.90;;
75922;SDS011;64602;47.542;19.090;2023-06-05T16:14:30;6.40;;;2.00;;
75922;SDS011;64602;47.542;19.090;2023-06-05T16:19:32;6.07;;;2.00;;
75922;SDS011;64602;47.542;19.090;2023-06-05T16:24:34;5.27;;;2.20;;
75922;SDS011;64602;47.542;19.090;2023-06-05T16:29:37;5.57;;;3.08;;
75922;SDS011;64602;47.542;19.090;2023-06-05T16:34:39;5.32;;;2.30;;
75922;SDS011;64602;47.542;19.090;2023-06-05T16:39:42;6.13;;;2.33;;
75922;SDS011;64602;47.542;19.090;2023-06-05T16:44:46;6.70;;;2.28;;
75922;SDS011;64602;47.542;19.090;2023-06-05T16:49:48;3.25;;;1.98;;
75922;SDS011;64602;47.542;19.090;2023-06-05T16:54:50;5.30;;;2.07;;
75922;SDS011;64602;47.542;19.090;2023-06-05T16:59:53;6.55;;;2.17;;
75922;SDS011;64602;47.542;19.090;2023-06-05T17:04:55;5.05;;;1.67;;
75922;SDS011;64602;47.542;19.090;2023-06-05T17:09:58;6.13;;;1.97;;
75922;SDS011;64602;47.542;19.090;2023-06-05T17:15:01;5.80;;;2.30;;
75922;SDS011;64602;47.542;19.090;2023-06-05T17:20:03;6.45;;;2.20;;
75922;SDS011;64602;47.542;19.090;2023-06-05T17:25:06;4.53;;;2.45;;
75922;SDS011;64602;47.542;19.090;2023-06-05T17:30:12;4.60;;;2.33;;
75922;SDS011;64602;47.542;19.090;2023-06-05T17:35:15;5.93;;;3.12;;
75922;SDS011;64602;47.542;19.090;2023-06-05T17:40:17;6.18;;;2.47;;
75922;SDS011;64602;47.542;19.090;2023-06-05T17:45:19;5.17;;;2.80;;
75922;SDS011;64602;47.542;19.090;2023-06-05T17:50:21;4.05;;;2.20;;
75922;SDS011;64602;47.542;19.090;2023-06-05T17:55:23;6.68;;;2.00;;
75922;SDS011;64602;47.542;19.090;2023-06-05T18:00:26;7.10;;;2.60;;
75922;SDS011;64602;47.542;19.090;2023-06-05T18:05:28;5.90;;;2.43;;
75922;SDS011;64602;47.542;19.090;2023-06-05T18:10:31;5.07;;;2.35;;
75922;SDS011;64602;47.542;19.090;2023-06-05T18:15:33;8.40;;;2.30;;
75922;SDS011;64602;47.542;19.090;2023-06-05T18:20:36;10.73;;;2.33;;
75922;SDS011;64602;47.542;19.090;2023-06-05T18:25:39;6.37;;;2.67;;
75922;SDS011;64602;47.542;19.090;2023-06-05T18:30:41;9.68;;;2.87;;
75922;SDS011;64602;47.542;19.090;2023-06-05T18:35:43;7.17;;;2.33;;
75922;SDS011;64602;47.542;19.090;2023-06-05T18:40:46;8.00;;;2.40;;
75922;SDS011;64602;47.542;19.090;2023-06-05T18:45:48;8.20;;;2.10;;
75922;SDS011;64602;47.542;19.090;2023-06-05T18:50:51;7.93;;;2.10;;
75922;SDS011;64602;47.542;19.090;2023-06-05T18:55:53;4.93;;;2.17;;
75922;SDS011;64602;47.542;19.090;2023-06-05T19:00:55;6.53;;;2.35;;
75922;SDS011;64602;47.542;19.090;2023-06-05T19:05:57;4.28;;;2.00;;
75922;SDS011;64602;47.542;19.090;2023-06-05T19:11:00;5.17;;;2.30;;
75922;SDS011;64602;47.542;19.090;2023-06-05T19:16:02;6.30;;;2.75;;
75922;SDS011;64602;47.542;19.090;2023-06-05T19:21:05;5.47;;;2.60;;
75922;SDS011;64602;47.542;19.090;2023-06-05T19:26:08;6.00;;;2.23;;
75922;SDS011;64602;47.542;19.090;2023-06-05T19:31:10;7.00;;;2.37;;
75922;SDS011;64602;47.542;19.090;2023-06-05T19:36:13;5.22;;;2.37;;
75922;SDS011;64602;47.542;19.090;2023-06-05T19:41:15;5.90;;;2.50;;
75922;SDS011;64602;47.542;19.090;2023-06-05T19:46:18;6.50;;;2.70;;
75922;SDS011;64602;47.542;19.090;2023-06-05T19:51:21;4.80;;;2.70;;
75922;SDS011;64602;47.542;19.090;2023-06-05T19:56:23;11.75;;;3.40;;
75922;SDS011;64602;47.542;19.090;2023-06-05T20:01:25;4.30;;;2.80;;
75922;SDS011;64602;47.542;19.090;2023-06-05T20:06:27;10.43;;;3.12;;
75922;SDS011;64602;47.542;19.090;2023-06-05T20:11:30;7.45;;;3.17;;
75922;SDS011;64602;47.542;19.090;2023-06-05T20:16:32;7.87;;;3.43;;
75922;SDS011;64602;47.542;19.090;2023-06-05T20:21:34;6.95;;;3.00;;
